sensor_id;sensor_type;location;lat;lon;timestamp;pressure;altitude;pressure_sealevel;temperature
67515;BMP280;60646;55.802;37.032;2024-01-15T00:00:44;97493.19;;;-2.69
67515;BMP280;60646;55.802;37.032;2024-01-15T00:03:09;97500.00;;;-2.63
67515;BMP280;60646;55.802;37.032;2024-01-15T00:05:36;97488.25;;;-2.67
67515;BMP280;60646;55.802;37.032;2024-01-15T00:08:02;97496.09;;;-2.58
67515;BMP280;60646;55.802;37.032;2024-01-15T00:10:27;97490.00;;;-2.64
67515;BMP280;60646;55.802;37.032;2024-01-15T00:12:53;97495.94;;;-2.54
67515;BMP280;60646;55.802;37.032;2024-01-15T00:15:19;97490.00;;;-2.55
67515;BMP280;60646;55.802;37.032;2024-01-15T00:17:45;97498.25;;;-2.47
67515;BMP280;60646;55.802;37.032;2024-01-15T00:20:11;97491.72;;;-2.52
67515;BMP280;60646;55.802;37.032;2024-01-15T00:22:39;97507.34;;;-2.34
67515;BMP280;60646;55.802;37.032;2024-01-15T00:25:05;97484.28;;;-2.44
67515;BMP280;60646;55.802;37.032;2024-01-15T00:27:31;97484.44;;;-2.39
67515;BMP280;60646;55.802;37.032;2024-01-15T00:29:57;97468.44;;;-2.41
67515;BMP280;60646;55.802;37.032;2024-01-15T00:32:23;97464.69;;;-2.40
67515;BMP280;60646;55.802;37.032;2024-01-15T00:34:49;97482.22;;;-2.31
67515;BMP280;60646;55.802;37.032;2024-01-15T00:37:16;97467.59;;;-2.29
67515;BMP280;60646;55.802;37.032;2024-01-15T00:39:43;97468.00;;;-2.30
67515;BMP280;60646;55.802;37.032;2024-01-15T00:42:09;97464.97;;;-2.29
67515;BMP280;60646;55.802;37.032;2024-01-15T00:44:35;97473.03;;;-2.17
67515;BMP280;60646;55.802;37.032;2024-01-15T00:47:01;97461.03;;;-2.24
67515;BMP280;60646;55.802;37.032;2024-01-15T00:49:27;97475.34;;;-2.10
67515;BMP280;60646;55.802;37.032;2024-01-15T00:51:53;97464.94;;;-2.20
67515;BMP280;60646;55.802;37.032;2024-01-15T00:54:19;97460.69;;;-2.17
67515;BMP280;60646;55.802;37.032;2024-01-15T00:56:45;97440.28;;;-2.28
67515;BMP280;60646;55.802;37.032;2024-01-15T00:59:11;97445.78;;;-2.26
67515;BMP280;60646;55.802;37.032;2024-01-15T01:01:41;97446.91;;;-2.17
67515;BMP280;60646;55.802;37.032;2024-01-15T01:04:11;97443.13;;;-2.16
67515;BMP280;60646;55.802;37.032;2024-01-15T01:06:37;97446.31;;;-2.12
67515;BMP280;60646;55.802;37.032;2024-01-15T01:09:03;97443.53;;;-2.09
67515;BMP280;60646;55.802;37.032;2024-01-15T01:11:29;97441.50;;;-2.05
67515;BMP280;60646;55.802;37.032;2024-01-15T01:13:55;97421.06;;;-2.15
67515;BMP280;60646;55.802;37.032;2024-01-15T01:16:22;97438.72;;;-2.01
67515;BMP280;60646;55.802;37.032;2024-01-15T01:18:48;97434.63;;;-2.02
67515;BMP280;60646;55.802;37.032;2024-01-15T01:21:13;97431.13;;;-1.99
67515;BMP280;60646;55.802;37.032;2024-01-15T01:23:39;97418.22;;;-2.03
67515;BMP280;60646;55.802;37.032;2024-01-15T01:26:05;97401.44;;;-2.11
67515;BMP280;60646;55.802;37.032;2024-01-15T01:28:31;97400.38;;;-2.04
67515;BMP280;60646;55.802;37.032;2024-01-15T01:30:57;97416.47;;;-1.97
67515;BMP280;60646;55.802;37.032;2024-01-15T01:33:23;97403.81;;;-1.98
67515;BMP280;60646;55.802;37.032;2024-01-15T01:35:49;97413.78;;;-1.88
67515;BMP280;60646;55.802;37.032;2024-01-15T01:38:15;97421.31;;;-1.81
67515;BMP280;60646;55.802;37.032;2024-01-15T01:40:41;97391.03;;;-1.96
67515;BMP280;60646;55.802;37.032;2024-01-15T01:43:09;97419.09;;;-1.73
67515;BMP280;60646;55.802;37.032;2024-01-15T01:45:35;97409.69;;;-1.80
67515;BMP280;60646;55.802;37.032;2024-01-15T01:48:01;97405.19;;;-1.79
67515;BMP280;60646;55.802;37.032;2024-01-15T01:50:28;97394.72;;;-1.79
67515;BMP280;60646;55.802;37.032;2024-01-15T01:52:55;97392.94;;;-1.73
67515;BMP280;60646;55.802;37.032;2024-01-15T01:55:24;97389.00;;;-1.68
67515;BMP280;60646;55.802;37.032;2024-01-15T01:57:51;97377.94;;;-1.72
67515;BMP280;60646;55.802;37.032;2024-01-15T02:00:17;97406.88;;;-1.52
67515;BMP280;60646;55.802;37.032;2024-01-15T02:02:43;97376.88;;;-1.66
67515;BMP280;60646;55.802;37.032;2024-01-15T02:05:09;97384.13;;;-1.61
67515;BMP280;60646;55.802;37.032;2024-01-15T02:07:35;97395.34;;;-1.46
67515;BMP280;60646;55.802;37.032;2024-01-15T02:10:02;97378.00;;;-1.58
67515;BMP280;60646;55.802;37.032;2024-01-15T02:12:30;97374.38;;;-1.60
67515;BMP280;60646;55.802;37.032;2024-01-15T02:14:55;97391.53;;;-1.45
67515;BMP280;60646;55.802;37.032;2024-01-15T02:17:21;97378.47;;;-1.45
67515;BMP280;60646;55.802;37.032;2024-01-15T02:19:47;97374.13;;;-1.48
67515;BMP280;60646;55.802;37.032;2024-01-15T02:22:13;97369.72;;;-1.42
67515;BMP280;60646;55.802;37.032;2024-01-15T02:24:39;97381.72;;;-1.35
67515;BMP280;60646;55.802;37.032;2024-01-15T02:27:05;97405.31;;;-1.20
67515;BMP280;60646;55.802;37.032;2024-01-15T02:29:31;97342.63;;;-1.53
67515;BMP280;60646;55.802;37.032;2024-01-15T02:31:57;97374.97;;;-1.27
67515;BMP280;60646;55.802;37.032;2024-01-15T02:34:22;97375.69;;;-1.26
67515;BMP280;60646;55.802;37.032;2024-01-15T02:36:48;97373.28;;;-1.30
67515;BMP280;60646;55.802;37.032;2024-01-15T02:39:14;97380.31;;;-1.21
67515;BMP280;60646;55.802;37.032;2024-01-15T02:41:40;97376.81;;;-1.18
67515;BMP280;60646;55.802;37.032;2024-01-15T02:44:06;97386.47;;;-1.10
67515;BMP280;60646;55.802;37.032;2024-01-15T02:46:31;97383.38;;;-1.08
67515;BMP280;60646;55.802;37.032;2024-01-15T02:48:57;97394.31;;;-0.95
67515;BMP280;60646;55.802;37.032;2024-01-15T02:51:23;97376.78;;;-1.04
67515;BMP280;60646;55.802;37.032;2024-01-15T02:53:50;97374.91;;;-1.03
67515;BMP280;60646;55.802;37.032;2024-01-15T02:56:16;97360.53;;;-1.08
67515;BMP280;60646;55.802;37.032;2024-01-15T02:58:41;97361.25;;;-1.07
67515;BMP280;60646;55.802;37.032;2024-01-15T03:01:07;97326.25;;;-1.24
67515;BMP280;60646;55.802;37.032;2024-01-15T03:03:33;97344.84;;;-1.08
67515;BMP280;60646;55.802;37.032;2024-01-15T03:05:59;97331.66;;;-1.13
67515;BMP280;60646;55.802;37.032;2024-01-15T03:08:25;97364.50;;;-0.83
67515;BMP280;60646;55.802;37.032;2024-01-15T03:10:50;97377.50;;;-0.74
67515;BMP280;60646;55.802;37.032;2024-01-15T03:13:16;97375.13;;;-0.72
67515;BMP280;60646;55.802;37.032;2024-01-15T03:15:43;97371.53;;;-0.74
67515;BMP280;60646;55.802;37.032;2024-01-15T03:18:09;97353.13;;;-0.80
67515;BMP280;60646;55.802;37.032;2024-01-15T03:20:34;97369.72;;;-0.68
67515;BMP280;60646;55.802;37.032;2024-01-15T03:23:00;97368.72;;;-0.71
67515;BMP280;60646;55.802;37.032;2024-01-15T03:25:26;97365.75;;;-0.64
67515;BMP280;60646;55.802;37.032;2024-01-15T03:27:52;97371.25;;;-0.62
67515;BMP280;60646;55.802;37.032;2024-01-15T03:30:18;97315.38;;;-0.88
67515;BMP280;60646;55.802;37.032;2024-01-15T03:32:43;97372.59;;;-0.52
67515;BMP280;60646;55.802;37.032;2024-01-15T03:35:09;97350.56;;;-0.60
67515;BMP280;60646;55.802;37.032;2024-01-15T03:37:35;97333.31;;;-0.66
67515;BMP280;60646;55.802;37.032;2024-01-15T03:40:01;97356.31;;;-0.56
67515;BMP280;60646;55.802;37.032;2024-01-15T03:42:29;97333.91;;;-0.57
67515;BMP280;60646;55.802;37.032;2024-01-15T03:44:55;97353.31;;;-0.49
67515;BMP280;60646;55.802;37.032;2024-01-15T03:47:21;97342.84;;;-0.49
67515;BMP280;60646;55.802;37.032;2024-01-15T03:49:46;97316.22;;;-0.62
67515;BMP280;60646;55.802;37.032;2024-01-15T03:52:13;97329.66;;;-0.54
67515;BMP280;60646;55.802;37.032;2024-01-15T03:54:39;97327.56;;;-0.50
67515;BMP280;60646;55.802;37.032;2024-01-15T03:57:04;97345.34;;;-0.39
67515;BMP280;60646;55.802;37.032;2024-01-15T03:59:30;97344.34;;;-0.42
67515;BMP280;60646;55.802;37.032;2024-01-15T04:01:56;97326.66;;;-0.47
67515;BMP280;60646;55.802;37.032;2024-01-15T04:04:22;97331.56;;;-0.34
67515;BMP280;60646;55.802;37.032;2024-01-15T04:06:48;97342.06;;;-0.34
67515;BMP280;60646;55.802;37.032;2024-01-15T04:09:13;97359.16;;;-0.24
67515;BMP280;60646;55.802;37.032;2024-01-15T04:11:39;97325.81;;;-0.38
67515;BMP280;60646;55.802;37.032;2024-01-15T04:14:06;97314.69;;;-0.33
67515;BMP280;60646;55.802;37.032;2024-01-15T04:16:31;97350.63;;;-0.19
67515;BMP280;60646;55.802;37.032;2024-01-15T04:18:57;97330.56;;;-0.22
67515;BMP280;60646;55.802;37.032;2024-01-15T04:21:23;97338.69;;;-0.20
67515;BMP280;60646;55.802;37.032;2024-01-15T04:23:49;97314.50;;;-0.30
67515;BMP280;60646;55.802;37.032;2024-01-15T04:26:15;97319.03;;;-0.30
67515;BMP280;60646;55.802;37.032;2024-01-15T04:28:41;97315.75;;;-0.25
67515;BMP280;60646;55.802;37.032;2024-01-15T04:31:07;97320.06;;;-0.22
67515;BMP280;60646;55.802;37.032;2024-01-15T04:33:33;97325.00;;;-0.10
67515;BMP280;60646;55.802;37.032;2024-01-15T04:36:02;97326.19;;;-0.11
67515;BMP280;60646;55.802;37.032;2024-01-15T04:38:28;97324.28;;;-0.10
67515;BMP280;60646;55.802;37.032;2024-01-15T04:40:54;97312.69;;;-0.24
67515;BMP280;60646;55.802;37.032;2024-01-15T04:43:20;97308.41;;;-0.21
67515;BMP280;60646;55.802;37.032;2024-01-15T04:45:46;97307.94;;;-0.20
67515;BMP280;60646;55.802;37.032;2024-01-15T04:48:12;97318.75;;;-0.12
67515;BMP280;60646;55.802;37.032;2024-01-15T04:50:37;97320.72;;;-0.07
67515;BMP280;60646;55.802;37.032;2024-01-15T04:53:03;97275.34;;;-0.33
67515;BMP280;60646;55.802;37.032;2024-01-15T04:55:29;97310.25;;;-0.07
67515;BMP280;60646;55.802;37.032;2024-01-15T04:57:55;97310.25;;;-0.07
67515;BMP280;60646;55.802;37.032;2024-01-15T05:00:21;97302.56;;;-0.11
67515;BMP280;60646;55.802;37.032;2024-01-15T05:02:46;97305.72;;;-0.07
67515;BMP280;60646;55.802;37.032;2024-01-15T05:05:12;97293.97;;;-0.11
67515;BMP280;60646;55.802;37.032;2024-01-15T05:07:39;97327.34;;;0.09
67515;BMP280;60646;55.802;37.032;2024-01-15T05:10:05;97309.84;;;0.00
67515;BMP280;60646;55.802;37.032;2024-01-15T05:12:32;97296.91;;;-0.04
67515;BMP280;60646;55.802;37.032;2024-01-15T05:14:58;97324.78;;;0.14
67515;BMP280;60646;55.802;37.032;2024-01-15T05:17:24;97322.16;;;0.14
67515;BMP280;60646;55.802;37.032;2024-01-15T05:19:50;97311.63;;;0.09
67515;BMP280;60646;55.802;37.032;2024-01-15T05:22:15;97307.06;;;0.09
67515;BMP280;60646;55.802;37.032;2024-01-15T05:24:41;97327.25;;;0.23
67515;BMP280;60646;55.802;37.032;2024-01-15T05:27:07;97308.56;;;0.16
67515;BMP280;60646;55.802;37.032;2024-01-15T05:29:33;97308.13;;;0.17
67515;BMP280;60646;55.802;37.032;2024-01-15T05:31:59;97302.66;;;0.21
67515;BMP280;60646;55.802;37.032;2024-01-15T05:34:25;97306.53;;;0.25
67515;BMP280;60646;55.802;37.032;2024-01-15T05:36:51;97326.41;;;0.37
67515;BMP280;60646;55.802;37.032;2024-01-15T05:39:16;97299.59;;;0.22
67515;BMP280;60646;55.802;37.032;2024-01-15T05:41:42;97282.53;;;0.12
67515;BMP280;60646;55.802;37.032;2024-01-15T05:44:08;97315.19;;;0.31
67515;BMP280;60646;55.802;37.032;2024-01-15T05:46:34;97306.06;;;0.32
67515;BMP280;60646;55.802;37.032;2024-01-15T05:49:00;97325.09;;;0.47
67515;BMP280;60646;55.802;37.032;2024-01-15T05:51:25;97328.44;;;0.48
67515;BMP280;60646;55.802;37.032;2024-01-15T05:53:51;97308.00;;;0.32
67515;BMP280;60646;55.802;37.032;2024-01-15T05:56:17;97323.84;;;0.43
67515;BMP280;60646;55.802;37.032;2024-01-15T05:58:43;97327.97;;;0.50
67515;BMP280;60646;55.802;37.032;2024-01-15T06:01:09;97311.22;;;0.47
67515;BMP280;60646;55.802;37.032;2024-01-15T06:03:35;97321.78;;;0.53
67515;BMP280;60646;55.802;37.032;2024-01-15T06:06:20;97315.09;;;0.52
67515;BMP280;60646;55.802;37.032;2024-01-15T06:08:45;97303.81;;;0.45
67515;BMP280;60646;55.802;37.032;2024-01-15T06:11:11;97298.09;;;0.47
67515;BMP280;60646;55.802;37.032;2024-01-15T06:13:37;97301.03;;;0.55
67515;BMP280;60646;55.802;37.032;2024-01-15T06:16:12;97310.19;;;0.65
67515;BMP280;60646;55.802;37.032;2024-01-15T06:18:39;97318.56;;;0.69
67515;BMP280;60646;55.802;37.032;2024-01-15T06:21:04;97302.78;;;0.63
67515;BMP280;60646;55.802;37.032;2024-01-15T06:23:30;97297.06;;;0.65
67515;BMP280;60646;55.802;37.032;2024-01-15T06:26:15;97311.69;;;0.71
67515;BMP280;60646;55.802;37.032;2024-01-15T06:28:41;97290.38;;;0.64
67515;BMP280;60646;55.802;37.032;2024-01-15T06:31:07;97320.63;;;0.85
67515;BMP280;60646;55.802;37.032;2024-01-15T06:33:33;97311.97;;;0.79
67515;BMP280;60646;55.802;37.032;2024-01-15T06:35:59;97308.41;;;0.82
67515;BMP280;60646;55.802;37.032;2024-01-15T06:38:25;97298.84;;;0.79
67515;BMP280;60646;55.802;37.032;2024-01-15T06:40:51;97309.13;;;0.82
67515;BMP280;60646;55.802;37.032;2024-01-15T06:43:17;97328.84;;;0.98
67515;BMP280;60646;55.802;37.032;2024-01-15T06:45:44;97300.81;;;0.84
67515;BMP280;60646;55.802;37.032;2024-01-15T06:48:10;97291.47;;;0.83
67515;BMP280;60646;55.802;37.032;2024-01-15T06:50:40;97300.63;;;0.93
67515;BMP280;60646;55.802;37.032;2024-01-15T06:53:06;97314.78;;;1.01
67515;BMP280;60646;55.802;37.032;2024-01-15T06:55:32;97319.84;;;1.10
67515;BMP280;60646;55.802;37.032;2024-01-15T06:57:58;97299.44;;;0.94
67515;BMP280;60646;55.802;37.032;2024-01-15T07:00:24;97318.41;;;1.09
67515;BMP280;60646;55.802;37.032;2024-01-15T07:02:50;97306.16;;;1.01
67515;BMP280;60646;55.802;37.032;2024-01-15T07:05:16;97318.22;;;1.13
67515;BMP280;60646;55.802;37.032;2024-01-15T07:08:02;97305.03;;;1.07
67515;BMP280;60646;55.802;37.032;2024-01-15T07:10:27;97318.94;;;1.19
67515;BMP280;60646;55.802;37.032;2024-01-15T07:12:53;97309.84;;;1.14
67515;BMP280;60646;55.802;37.032;2024-01-15T07:15:19;97335.28;;;1.34
67515;BMP280;60646;55.802;37.032;2024-01-15T07:17:45;97327.16;;;1.37
67515;BMP280;60646;55.802;37.032;2024-01-15T07:20:11;97311.16;;;1.30
67515;BMP280;60646;55.802;37.032;2024-01-15T07:22:37;97329.09;;;1.43
67515;BMP280;60646;55.802;37.032;2024-01-15T07:25:03;97328.38;;;1.42
67515;BMP280;60646;55.802;37.032;2024-01-15T07:27:32;97338.94;;;1.48
67515;BMP280;60646;55.802;37.032;2024-01-15T07:29:58;97332.50;;;1.49
67515;BMP280;60646;55.802;37.032;2024-01-15T07:32:24;97309.47;;;1.32
67515;BMP280;60646;55.802;37.032;2024-01-15T07:34:50;97330.38;;;1.53
67515;BMP280;60646;55.802;37.032;2024-01-15T07:37:16;97339.97;;;1.61
67515;BMP280;60646;55.802;37.032;2024-01-15T07:39:41;97337.38;;;1.67
67515;BMP280;60646;55.802;37.032;2024-01-15T07:42:07;97334.97;;;1.69
67515;BMP280;60646;55.802;37.032;2024-01-15T07:44:34;97323.53;;;1.72
67515;BMP280;60646;55.802;37.032;2024-01-15T07:47:00;97295.47;;;1.52
67515;BMP280;60646;55.802;37.032;2024-01-15T07:49:25;97301.72;;;1.60
67515;BMP280;60646;55.802;37.032;2024-01-15T07:51:51;97317.31;;;1.75
67515;BMP280;60646;55.802;37.032;2024-01-15T07:54:17;97307.50;;;1.70
67515;BMP280;60646;55.802;37.032;2024-01-15T07:56:57;97312.81;;;1.81
67515;BMP280;60646;55.802;37.032;2024-01-15T07:59:23;97312.78;;;1.87
67515;BMP280;60646;55.802;37.032;2024-01-15T08:01:49;97309.47;;;1.86
67515;BMP280;60646;55.802;37.032;2024-01-15T08:04:15;97313.31;;;1.96
67515;BMP280;60646;55.802;37.032;2024-01-15T08:06:41;97305.41;;;1.96
67515;BMP280;60646;55.802;37.032;2024-01-15T08:09:07;97307.34;;;2.01
67515;BMP280;60646;55.802;37.032;2024-01-15T08:11:34;97310.72;;;2.07
67515;BMP280;60646;55.802;37.032;2024-01-15T08:14:00;97328.47;;;2.23
67515;BMP280;60646;55.802;37.032;2024-01-15T08:16:26;97330.13;;;2.32
67515;BMP280;60646;55.802;37.032;2024-01-15T08:18:53;97329.91;;;2.36
67515;BMP280;60646;55.802;37.032;2024-01-15T08:21:19;97316.72;;;2.30
67515;BMP280;60646;55.802;37.032;2024-01-15T08:23:45;97317.94;;;2.35
67515;BMP280;60646;55.802;37.032;2024-01-15T08:26:11;97309.78;;;2.38
67515;BMP280;60646;55.802;37.032;2024-01-15T08:28:37;97320.56;;;2.46
67515;BMP280;60646;55.802;37.032;2024-01-15T08:31:03;97337.34;;;2.59
67515;BMP280;60646;55.802;37.032;2024-01-15T08:33:29;97326.13;;;2.59
67515;BMP280;60646;55.802;37.032;2024-01-15T08:35:55;97323.72;;;2.61
67515;BMP280;60646;55.802;37.032;2024-01-15T08:38:21;97324.41;;;2.67
67515;BMP280;60646;55.802;37.032;2024-01-15T08:40:48;97322.00;;;2.69
67515;BMP280;60646;55.802;37.032;2024-01-15T08:43:14;97331.13;;;2.73
67515;BMP280;60646;55.802;37.032;2024-01-15T08:45:40;97331.38;;;2.81
67515;BMP280;60646;55.802;37.032;2024-01-15T08:48:06;97340.47;;;2.91
67515;BMP280;60646;55.802;37.032;2024-01-15T08:50:32;97344.78;;;2.94
67515;BMP280;60646;55.802;37.032;2024-01-15T08:52:59;97348.81;;;2.95
67515;BMP280;60646;55.802;37.032;2024-01-15T08:55:25;97315.31;;;2.79
67515;BMP280;60646;55.802;37.032;2024-01-15T08:57:50;97318.44;;;2.83
67515;BMP280;60646;55.802;37.032;2024-01-15T09:00:17;97348.56;;;3.04
67515;BMP280;60646;55.802;37.032;2024-01-15T09:02:43;97344.03;;;3.05
67515;BMP280;60646;55.802;37.032;2024-01-15T09:05:09;97314.13;;;2.86
67515;BMP280;60646;55.802;37.032;2024-01-15T09:07:35;97328.25;;;2.99
67515;BMP280;60646;55.802;37.032;2024-01-15T09:10:01;97339.97;;;3.09
67515;BMP280;60646;55.802;37.032;2024-01-15T09:12:27;97314.34;;;2.93
67515;BMP280;60646;55.802;37.032;2024-01-15T09:14:53;97324.16;;;2.98
67515;BMP280;60646;55.802;37.032;2024-01-15T09:17:22;97294.22;;;2.79
67515;BMP280;60646;55.802;37.032;2024-01-15T09:19:50;97321.75;;;3.06
67515;BMP280;60646;55.802;37.032;2024-01-15T09:22:16;97326.31;;;3.11
67515;BMP280;60646;55.802;37.032;2024-01-15T09:24:47;97317.19;;;3.06
67515;BMP280;60646;55.802;37.032;2024-01-15T09:27:13;97318.88;;;3.09
67515;BMP280;60646;55.802;37.032;2024-01-15T09:29:39;97328.94;;;3.16
67515;BMP280;60646;55.802;37.032;2024-01-15T09:32:07;97332.25;;;3.28
67515;BMP280;60646;55.802;37.032;2024-01-15T09:34:34;97313.13;;;3.16
67515;BMP280;60646;55.802;37.032;2024-01-15T09:37:00;97330.78;;;3.33
67515;BMP280;60646;55.802;37.032;2024-01-15T09:39:27;97343.72;;;3.36
67515;BMP280;60646;55.802;37.032;2024-01-15T09:41:56;97312.59;;;3.23
67515;BMP280;60646;55.802;37.032;2024-01-15T09:44:23;97311.16;;;3.22
67515;BMP280;60646;55.802;37.032;2024-01-15T09:46:49;97340.16;;;3.45
67515;BMP280;60646;55.802;37.032;2024-01-15T09:49:16;97343.22;;;3.49
67515;BMP280;60646;55.802;37.032;2024-01-15T09:51:42;97331.69;;;3.52
67515;BMP280;60646;55.802;37.032;2024-01-15T09:54:09;97331.44;;;3.55
67515;BMP280;60646;55.802;37.032;2024-01-15T09:56:35;97325.22;;;3.47
67515;BMP280;60646;55.802;37.032;2024-01-15T09:59:02;97341.75;;;3.59
67515;BMP280;60646;55.802;37.032;2024-01-15T10:01:31;97326.91;;;3.50
67515;BMP280;60646;55.802;37.032;2024-01-15T10:03:58;97342.94;;;3.63
67515;BMP280;60646;55.802;37.032;2024-01-15T10:06:26;97327.34;;;3.60
67515;BMP280;60646;55.802;37.032;2024-01-15T10:08:56;97325.22;;;3.53
67515;BMP280;60646;55.802;37.032;2024-01-15T10:11:23;97323.28;;;3.59
67515;BMP280;60646;55.802;37.032;2024-01-15T10:13:49;97347.00;;;3.70
67515;BMP280;60646;55.802;37.032;2024-01-15T10:16:23;97325.69;;;3.62
67515;BMP280;60646;55.802;37.032;2024-01-15T10:18:49;97328.53;;;3.59
67515;BMP280;60646;55.802;37.032;2024-01-15T10:21:15;97332.41;;;3.58
67515;BMP280;60646;55.802;37.032;2024-01-15T10:23:41;97316.34;;;3.56
67515;BMP280;60646;55.802;37.032;2024-01-15T10:26:07;97324.72;;;3.60
67515;BMP280;60646;55.802;37.032;2024-01-15T10:28:33;97342.44;;;3.70
67515;BMP280;60646;55.802;37.032;2024-01-15T10:31:00;97345.09;;;3.70
67515;BMP280;60646;55.802;37.032;2024-01-15T10:33:26;97331.44;;;3.61
67515;BMP280;60646;55.802;37.032;2024-01-15T10:36:00;97307.69;;;3.50
67515;BMP280;60646;55.802;37.032;2024-01-15T10:38:26;97325.91;;;3.59
67515;BMP280;60646;55.802;37.032;2024-01-15T10:40:56;97337.88;;;3.71
67515;BMP280;60646;55.802;37.032;2024-01-15T10:43:22;97336.44;;;3.70
67515;BMP280;60646;55.802;37.032;2024-01-15T10:45:50;97319.94;;;3.58
67515;BMP280;60646;55.802;37.032;2024-01-15T10:48:17;97332.59;;;3.71
67515;BMP280;60646;55.802;37.032;2024-01-15T10:50:44;97328.06;;;3.71
67515;BMP280;60646;55.802;37.032;2024-01-15T10:53:15;97315.13;;;3.62
67515;BMP280;60646;55.802;37.032;2024-01-15T10:55:42;97321.81;;;3.63
67515;BMP280;60646;55.802;37.032;2024-01-15T10:58:08;97333.03;;;3.75
67515;BMP280;60646;55.802;37.032;2024-01-15T11:00:35;97335.91;;;3.77
67515;BMP280;60646;55.802;37.032;2024-01-15T11:03:05;97335.44;;;3.79
67515;BMP280;60646;55.802;37.032;2024-01-15T11:05:37;97333.03;;;3.75
67515;BMP280;60646;55.802;37.032;2024-01-15T11:08:07;97331.81;;;3.82
67515;BMP280;60646;55.802;37.032;2024-01-15T11:10:45;97338.53;;;3.83
67515;BMP280;60646;55.802;37.032;2024-01-15T11:13:19;97328.69;;;3.83
67515;BMP280;60646;55.802;37.032;2024-01-15T11:16:15;97327.72;;;3.86
67515;BMP280;60646;55.802;37.032;2024-01-15T11:23:45;97322.94;;;3.85
67515;BMP280;60646;55.802;37.032;2024-01-15T11:26:33;97330.59;;;3.88
67515;BMP280;60646;55.802;37.032;2024-01-15T11:29:01;97329.16;;;3.87
67515;BMP280;60646;55.802;37.032;2024-01-15T11:34:05;97315.50;;;3.83
67515;BMP280;60646;55.802;37.032;2024-01-15T11:41:58;97318.38;;;3.85
67515;BMP280;60646;55.802;37.032;2024-01-15T11:44:26;97310.94;;;3.78
67515;BMP280;60646;55.802;37.032;2024-01-15T11:52:11;97307.56;;;3.83
67515;BMP280;60646;55.802;37.032;2024-01-15T11:54:38;97316.19;;;3.89
67515;BMP280;60646;55.802;37.032;2024-01-15T11:57:10;97320.94;;;3.96
67515;BMP280;60646;55.802;37.032;2024-01-15T11:59:43;97328.84;;;3.96
67515;BMP280;60646;55.802;37.032;2024-01-15T12:02:09;97301.56;;;3.83
67515;BMP280;60646;55.802;37.032;2024-01-15T12:04:38;97323.09;;;3.98
67515;BMP280;60646;55.802;37.032;2024-01-15T12:07:05;97318.53;;;3.98
67515;BMP280;60646;55.802;37.032;2024-01-15T12:09:31;97322.84;;;4.01
67515;BMP280;60646;55.802;37.032;2024-01-15T12:12:09;97325.72;;;4.03
67515;BMP280;60646;55.802;37.032;2024-01-15T12:14:39;97326.66;;;4.00
67515;BMP280;60646;55.802;37.032;2024-01-15T12:17:05;97323.56;;;4.02
67515;BMP280;60646;55.802;37.032;2024-01-15T12:19:31;97319.72;;;4.03
67515;BMP280;60646;55.802;37.032;2024-01-15T12:21:58;97311.81;;;3.97
67515;BMP280;60646;55.802;37.032;2024-01-15T12:24:24;97319.97;;;3.99
67515;BMP280;60646;55.802;37.032;2024-01-15T12:26:50;97307.28;;;3.92
67515;BMP280;60646;55.802;37.032;2024-01-15T12:29:18;97312.56;;;3.92
67515;BMP280;60646;55.802;37.032;2024-01-15T12:31:47;97311.38;;;3.93
67515;BMP280;60646;55.802;37.032;2024-01-15T12:34:13;97313.50;;;3.95
67515;BMP280;60646;55.802;37.032;2024-01-15T12:36:40;97311.81;;;3.97
67515;BMP280;60646;55.802;37.032;2024-01-15T12:39:11;97311.81;;;3.97
67515;BMP280;60646;55.802;37.032;2024-01-15T12:41:38;97291.28;;;3.79
67515;BMP280;60646;55.802;37.032;2024-01-15T12:44:04;97322.84;;;4.01
67515;BMP280;60646;55.802;37.032;2024-01-15T12:46:30;97308.94;;;3.95
67515;BMP280;60646;55.802;37.032;2024-01-15T12:48:57;97302.75;;;3.87
67515;BMP280;60646;55.802;37.032;2024-01-15T12:51:26;97312.78;;;3.94
67515;BMP280;60646;55.802;37.032;2024-01-15T12:53:53;97303.72;;;3.90
67515;BMP280;60646;55.802;37.032;2024-01-15T12:56:20;97302.22;;;3.94
67515;BMP280;60646;55.802;37.032;2024-01-15T12:58:48;97318.28;;;4.02
67515;BMP280;60646;55.802;37.032;2024-01-15T13:01:14;97319.97;;;3.99
67515;BMP280;60646;55.802;37.032;2024-01-15T13:03:40;97310.66;;;3.93
67515;BMP280;60646;55.802;37.032;2024-01-15T13:06:06;97323.81;;;3.98
67515;BMP280;60646;55.802;37.032;2024-01-15T13:08:32;97332.66;;;4.01
67515;BMP280;60646;55.802;37.032;2024-01-15T13:10:58;97325.72;;;4.03
67515;BMP280;60646;55.802;37.032;2024-01-15T13:13:24;97300.63;;;3.86
67515;BMP280;60646;55.802;37.032;2024-01-15T13:15:50;97312.56;;;3.92
67515;BMP280;60646;55.802;37.032;2024-01-15T13:18:16;97313.50;;;3.95
67515;BMP280;60646;55.802;37.032;2024-01-15T13:20:42;97305.19;;;3.85
67515;BMP280;60646;55.802;37.032;2024-01-15T13:23:08;97304.72;;;3.81
67515;BMP280;60646;55.802;37.032;2024-01-15T13:25:35;97327.22;;;3.93
67515;BMP280;60646;55.802;37.032;2024-01-15T13:28:05;97340.13;;;4.02
67515;BMP280;60646;55.802;37.032;2024-01-15T13:30:30;97333.19;;;3.94
67515;BMP280;60646;55.802;37.032;2024-01-15T13:32:57;97306.13;;;3.82
67515;BMP280;60646;55.802;37.032;2024-01-15T13:35:23;97336.03;;;4.01
67515;BMP280;60646;55.802;37.032;2024-01-15T13:37:50;97334.38;;;3.98
67515;BMP280;60646;55.802;37.032;2024-01-15T13:40:16;97326.03;;;3.89
67515;BMP280;60646;55.802;37.032;2024-01-15T13:42:42;97325.56;;;3.90
67515;BMP280;60646;55.802;37.032;2024-01-15T13:45:08;97337.50;;;3.97
67515;BMP280;60646;55.802;37.032;2024-01-15T13:47:34;97311.41;;;3.82
67515;BMP280;60646;55.802;37.032;2024-01-15T13:50:00;97315.97;;;3.87
67515;BMP280;60646;55.802;37.032;2024-01-15T13:52:26;97298.72;;;3.75
67515;BMP280;60646;55.802;37.032;2024-01-15T13:54:53;97301.84;;;3.79
67515;BMP280;60646;55.802;37.032;2024-01-15T13:57:37;97321.94;;;3.93
67515;BMP280;60646;55.802;37.032;2024-01-15T14:00:03;97334.38;;;3.98
67515;BMP280;60646;55.802;37.032;2024-01-15T14:02:35;97323.41;;;3.83
67515;BMP280;60646;55.802;37.032;2024-01-15T14:05:01;97320.78;;;3.83
67515;BMP280;60646;55.802;37.032;2024-01-15T14:07:29;97339.41;;;3.96
67515;BMP280;60646;55.802;37.032;2024-01-15T14:09:55;97329.81;;;3.99
67515;BMP280;60646;55.802;37.032;2024-01-15T14:12:20;97306.13;;;3.82
67515;BMP280;60646;55.802;37.032;2024-01-15T14:14:47;97321.69;;;3.91
67515;BMP280;60646;55.802;37.032;2024-01-15T14:17:13;97317.63;;;3.90
67515;BMP280;60646;55.802;37.032;2024-01-15T14:19:39;97310.91;;;3.89